sensor_id;sensor_type;location;lat;lon;timestamp;P1;durP1;ratioP1;P2;durP2;ratioP2
12550;SDS011;6341;51.434;6.792;2022-08-01T00:00:35;8.17;;;6.00;;
12550;SDS011;6341;51.434;6.792;2022-08-01T00:06:00;6.43;;;5.20;;
12550;SDS011;6341;51.434;6.792;2022-08-01T00:11:24;6.07;;;4.03;;
12550;SDS011;6341;51.434;6.792;2022-08-01T00:16:49;6.70;;;6.00;;
12550;SDS011;6341;51.434;6.792;2022-08-01T00:22:14;6.03;;;5.00;;
12550;SDS011;6341;51.434;6.792;2022-08-01T00:27:37;7.30;;;5.80;;
12550;SDS011;6341;51.434;6.792;2022-08-01T00:33:01;6.23;;;5.33;;
12550;SDS011;6341;51.434;6.792;2022-08-01T00:38:26;8.17;;;5.23;;
12550;SDS011;6341;51.434;6.792;2022-08-01T00:43:49;8.63;;;5.97;;
12550;SDS011;6341;51.434;6.792;2022-08-01T00:49:12;6.67;;;5.03;;
12550;SDS011;6341;51.434;6.792;2022-08-01T00:54:37;9.97;;;5.80;;
12550;SDS011;6341;51.434;6.792;2022-08-01T01:00:02;8.73;;;7.30;;
12550;SDS011;6341;51.434;6.792;2022-08-01T01:05:26;7.83;;;5.60;;
12550;SDS011;6341;51.434;6.792;2022-08-01T01:10:58;7.50;;;5.90;;
12550;SDS011;6341;51.434;6.792;2022-08-01T01:16:27;11.03;;;6.93;;
12550;SDS011;6341;51.434;6.792;2022-08-01T01:22:05;8.63;;;5.30;;
12550;SDS011;6341;51.434;6.792;2022-08-01T01:27:42;10.47;;;6.60;;
12550;SDS011;6341;51.434;6.792;2022-08-01T01:33:13;7.87;;;5.60;;
12550;SDS011;6341;51.434;6.792;2022-08-01T01:38:39;10.73;;;6.63;;
12550;SDS011;6341;51.434;6.792;2022-08-01T01:44:06;13.93;;;7.23;;
12550;SDS011;6341;51.434;6.792;2022-08-01T01:49:36;14.37;;;6.97;;
12550;SDS011;6341;51.434;6.792;2022-08-01T01:55:01;8.90;;;6.17;;
12550;SDS011;6341;51.434;6.792;2022-08-01T02:00:28;12.37;;;7.23;;
12550;SDS011;6341;51.434;6.792;2022-08-01T02:05:55;13.27;;;8.33;;
12550;SDS011;6341;51.434;6.792;2022-08-01T02:11:20;11.53;;;7.97;;
12550;SDS011;6341;51.434;6.792;2022-08-01T02:16:48;15.07;;;8.13;;
12550;SDS011;6341;51.434;6.792;2022-08-01T02:22:16;11.67;;;9.23;;
12550;SDS011;6341;51.434;6.792;2022-08-01T02:27:47;13.70;;;9.70;;
12550;SDS011;6341;51.434;6.792;2022-08-01T02:33:17;14.43;;;9.47;;
12550;SDS011;6341;51.434;6.792;2022-08-01T02:38:45;13.83;;;9.70;;
12550;SDS011;6341;51.434;6.792;2022-08-01T02:44:10;14.87;;;9.83;;
12550;SDS011;6341;51.434;6.792;2022-08-01T02:49:42;13.10;;;8.33;;
12550;SDS011;6341;51.434;6.792;2022-08-01T02:55:15;14.50;;;10.17;;
12550;SDS011;6341;51.434;6.792;2022-08-01T03:00:41;15.60;;;9.97;;
12550;SDS011;6341;51.434;6.792;2022-08-01T03:06:09;12.67;;;10.00;;
12550;SDS011;6341;51.434;6.792;2022-08-01T03:11:34;15.27;;;10.47;;
12550;SDS011;6341;51.434;6.792;2022-08-01T03:17:02;14.43;;;9.73;;
12550;SDS011;6341;51.434;6.792;2022-08-01T03:22:27;11.07;;;7.80;;
12550;SDS011;6341;51.434;6.792;2022-08-01T03:27:59;19.23;;;12.70;;
12550;SDS011;6341;51.434;6.792;2022-08-01T03:33:25;15.07;;;10.47;;
12550;SDS011;6341;51.434;6.792;2022-08-01T03:38:49;13.23;;;10.13;;
12550;SDS011;6341;51.434;6.792;2022-08-01T03:44:20;12.67;;;10.57;;
12550;SDS011;6341;51.434;6.792;2022-08-01T03:49:48;15.93;;;11.17;;
12550;SDS011;6341;51.434;6.792;2022-08-01T03:55:14;13.23;;;9.80;;
12550;SDS011;6341;51.434;6.792;2022-08-01T04:00:41;17.40;;;10.77;;
12550;SDS011;6341;51.434;6.792;2022-08-01T04:06:05;13.10;;;9.90;;
12550;SDS011;6341;51.434;6.792;2022-08-01T04:11:32;13.03;;;8.63;;
12550;SDS011;6341;51.434;6.792;2022-08-01T04:17:02;10.77;;;8.40;;
12550;SDS011;6341;51.434;6.792;2022-08-01T04:22:28;12.97;;;9.50;;
